Time;durP1;ratioP1;P1;durP2;ratioP2;P2;SDS_P1;SDS_P2;PMS_P1;PMS_P2;Temp;Humidity;BMP_temperature;BMP_pressure;BME280_temperature;BME280_humidity;BME280_pressure;Samples;Min_cycle;Max_cycle;Signal;HPM_P1;HPM_P2
2022/02/12 00:01:51;;;;;;;37.57;8.90;;;;;;;;;;5020423;28;20018;-70
2022/02/12 00:04:16;;;;;;;35.27;8.80;;;;;;;;;;5020962;28;20048;-70
2022/02/12 00:06:41;;;;;;;28.20;8.23;;;;;;;;;;5020681;28;20057;-70
2022/02/12 00:09:06;;;;;;;27.10;7.73;;;;;;;;;;5020916;28;20053;-70
2022/02/12 00:11:32;;;;;;;28.33;9.07;;;;;;;;;;5020380;28;20044;-70
2022/02/12 00:13:57;;;;;;;30.43;8.17;;;;;;;;;;5020820;28;20037;-70
2022/02/12 00:16:22;;;;;;;32.30;8.80;;;;;;;;;;5020325;28;20036;-70
2022/02/12 00:18:47;;;;;;;33.17;9.83;;;;;;;;;;5020692;28;20658;-70
2022/02/12 00:21:12;;;;;;;25.53;8.00;;;;;;;;;;5020626;28;20643;-70
2022/02/12 00:23:38;;;;;;;20.97;7.90;;;;;;;;;;5019818;28;20056;-70
2022/02/12 00:26:03;;;;;;;35.97;9.20;;;;;;;;;;5020193;28;20033;-70
2022/02/12 00:28:28;;;;;;;21.33;6.93;;;;;;;;;;5019894;28;20034;-70
2022/02/12 00:30:54;;;;;;;22.33;7.90;;;;;;;;;;5020208;28;20490;-70
2022/02/12 00:33:19;;;;;;;27.37;8.03;;;;;;;;;;5019977;28;20530;-70
2022/02/12 00:35:45;;;;;;;22.93;7.23;;;;;;;;;;5019501;28;20021;-70
2022/02/12 00:38:10;;;;;;;19.77;7.93;;;;;;;;;;5019983;28;20109;-70
2022/02/12 00:40:35;;;;;;;23.23;8.67;;;;;;;;;;5020053;28;20402;-70
2022/02/12 00:43:01;;;;;;;23.80;8.47;;;;;;;;;;5019942;28;20049;-70
2022/02/12 00:45:27;;;;;;;28.17;8.20;;;;;;;;;;5019902;28;20021;-70
2022/02/12 00:47:52;;;;;;;27.90;9.03;;;;;;;;;;5019647;28;20787;-70
2022/02/12 00:50:17;;;;;;;30.27;8.30;;;;;;;;;;5019564;28;20457;-70
2022/02/12 00:52:42;;;;;;;28.37;7.87;;;;;;;;;;5018787;28;20278;-70
2022/02/12 00:55:08;;;;;;;26.97;7.73;;;;;;;;;;5024610;28;20057;-70
2022/02/12 00:57:33;;;;;;;25.17;7.60;;;;;;;;;;5019431;28;20108;-70
2022/02/12 00:59:59;;;;;;;34.37;8.73;;;;;;;;;;5018446;28;20026;-70
2022/02/12 01:02:24;;;;;;;29.87;7.90;;;;;;;;;;5019642;28;20207;-70
2022/02/12 01:04:49;;;;;;;30.23;7.33;;;;;;;;;;5019596;28;20159;-70
2022/02/12 01:07:14;;;;;;;27.37;8.40;;;;;;;;;;5019550;28;20025;-70
2022/02/12 01:09:39;;;;;;;24.37;7.87;;;;;;;;;;5019558;28;20021;-70
2022/02/12 01:12:06;;;;;;;25.63;8.23;;;;;;;;;;5019705;28;20514;-70
2022/02/12 01:14:31;;;;;;;22.57;8.43;;;;;;;;;;5019683;28;20032;-70
2022/02/12 01:16:56;;;;;;;25.40;7.90;;;;;;;;;;5019561;28;20252;-70
2022/02/12 01:19:22;;;;;;;30.47;8.03;;;;;;;;;;5020012;28;20433;-70
2022/02/12 01:21:47;;;;;;;26.50;8.17;;;;;;;;;;5019504;28;20057;-70
2022/02/12 01:24:12;;;;;;;30.70;8.43;;;;;;;;;;5019546;28;20032;-70
2022/02/12 01:26:38;;;;;;;30.77;8.83;;;;;;;;;;5019450;28;20076;-70
2022/02/12 01:29:04;;;;;;;32.20;7.27;;;;;;;;;;5019540;28;20025;-70
2022/02/12 01:31:29;;;;;;;17.97;7.63;;;;;;;;;;5018683;28;20068;-70
2022/02/12 01:33:54;;;;;;;27.80;8.33;;;;;;;;;;5019463;28;20311;-70
2022/02/12 01:36:20;;;;;;;27.57;8.17;;;;;;;;;;5018894;28;20028;-70
2022/02/12 01:38:45;;;;;;;25.93;7.13;;;;;;;;;;5019206;28;20166;-70
2022/02/12 01:41:10;;;;;;;21.10;7.17;;;;;;;;;;5018557;28;20136;-70
2022/02/12 01:43:35;;;;;;;23.93;7.53;;;;;;;;;;5019516;28;20209;-70
2022/02/12 01:46:01;;;;;;;33.73;8.67;;;;;;;;;;5018399;28;20087;-70
2022/02/12 01:48:27;;;;;;;30.67;8.10;;;;;;;;;;5019191;28;20513;-70
2022/02/12 01:50:52;;;;;;;42.60;8.57;;;;;;;;;;5018978;28;20087;-70
2022/02/12 01:53:19;;;;;;;33.93;8.57;;;;;;;;;;5018757;28;20703;-70
2022/02/12 01:55:45;;;;;;;29.43;8.23;;;;;;;;;;5023766;28;20051;-70
2022/02/12 01:58:10;;;;;;;31.87;8.13;;;;;;;;;;5019408;28;20441;-70
2022/02/12 02:00:36;;;;;;;23.30;7.80;;;;;;;;;;5019278;28;20047;-70
2022/02/12 02:03:01;;;;;;;24.43;7.93;;;;;;;;;;5043096;22;20056;-67
2022/02/12 02:05:26;;;;;;;22.33;7.60;;;;;;;;;;5038455;28;20029;-67
2022/02/12 02:07:52;;;;;;;32.00;9.23;;;;;;;;;;5038326;28;20401;-67
2022/02/12 02:10:17;;;;;;;28.73;7.97;;;;;;;;;;5038396;28;20161;-67
2022/02/12 02:12:43;;;;;;;30.33;7.83;;;;;;;;;;5038151;28;20029;-67
2022/02/12 02:15:08;;;;;;;31.13;7.63;;;;;;;;;;5038058;28;20033;-67
2022/02/12 02:17:34;;;;;;;28.87;6.83;;;;;;;;;;5038708;28;20496;-67
2022/02/12 02:19:59;;;;;;;26.17;7.77;;;;;;;;;;5029350;28;20089;-67
2022/02/12 02:22:28;;;;;;;28.13;8.53;;;;;;;;;;5038381;28;20259;-67
2022/02/12 02:24:53;;;;;;;37.93;8.77;;;;;;;;;;5038040;28;20035;-67
2022/02/12 02:27:21;;;;;;;28.93;7.73;;;;;;;;;;5038342;28;20499;-67
2022/02/12 02:29:46;;;;;;;27.97;7.97;;;;;;;;;;5038161;28;20115;-67
2022/02/12 02:32:12;;;;;;;22.40;7.97;;;;;;;;;;5038511;28;20354;-67
2022/02/12 02:34:45;;;;;;;24.40;7.63;;;;;;;;;;5038153;28;20028;-67
2022/02/12 02:37:10;;;;;;;25.00;7.30;;;;;;;;;;5037803;28;20523;-67
2022/02/12 02:39:36;;;;;;;28.27;8.90;;;;;;;;;;5025055;28;20350;-67
2022/02/12 02:42:02;;;;;;;44.27;9.53;;;;;;;;;;5038434;28;20245;-67
2022/02/12 02:44:28;;;;;;;30.07;8.17;;;;;;;;;;5038045;28;20045;-67
2022/02/12 02:46:53;;;;;;;29.80;8.13;;;;;;;;;;5037541;28;20751;-67
2022/02/12 02:49:18;;;;;;;23.23;8.63;;;;;;;;;;5038192;28;20017;-67
2022/02/12 02:57:11;;;;;;;24.50;8.17;;;;;;;;;;5038250;28;20294;-67
2022/02/12 02:59:36;;;;;;;31.27;9.30;;;;;;;;;;5035882;28;20287;-67
2022/02/12 03:02:01;;;;;;;29.20;7.50;;;;;;;;;;5037601;28;20024;-67
2022/02/12 03:04:27;;;;;;;28.67;8.07;;;;;;;;;;5037969;28;20103;-67
2022/02/12 03:06:52;;;;;;;24.47;7.43;;;;;;;;;;5037543;28;20257;-67
2022/02/12 03:09:17;;;;;;;27.27;8.83;;;;;;;;;;5038202;28;20408;-67
2022/02/12 03:11:43;;;;;;;23.27;8.17;;;;;;;;;;5037373;28;20351;-68
2022/02/12 03:14:08;;;;;;;22.67;8.07;;;;;;;;;;5037844;28;20135;-67
2022/02/12 03:16:33;;;;;;;58.10;9.73;;;;;;;;;;5024083;28;20021;-67
2022/02/12 03:18:59;;;;;;;19.60;6.93;;;;;;;;;;5017794;28;20060;-67
2022/02/12 03:21:24;;;;;;;30.23;9.27;;;;;;;;;;5032830;28;20229;-67
2022/02/12 03:23:49;;;;;;;26.57;7.30;;;;;;;;;;5039531;28;20162;-68
2022/02/12 03:26:15;;;;;;;38.23;9.20;;;;;;;;;;5041064;28;20032;-68
2022/02/12 03:28:40;;;;;;;20.60;8.07;;;;;;;;;;5041081;28;20261;-69
2022/02/12 03:31:05;;;;;;;17.73;6.77;;;;;;;;;;5041024;28;20100;-69
2022/02/12 03:33:31;;;;;;;24.90;7.40;;;;;;;;;;5041263;28;20040;-68
2022/02/12 03:35:56;;;;;;;19.57;6.97;;;;;;;;;;5040722;28;20028;-68
2022/02/12 03:38:26;;;;;;;27.50;8.03;;;;;;;;;;5040319;28;20168;-68
2022/02/12 03:40:54;;;;;;;20.63;8.40;;;;;;;;;;5040873;28;20479;-68
2022/02/12 03:43:19;;;;;;;24.23;8.67;;;;;;;;;;5041154;28;20256;-68
2022/02/12 03:45:44;;;;;;;30.53;8.33;;;;;;;;;;5040669;28;20317;-68
2022/02/12 03:48:10;;;;;;;28.13;10.90;;;;;;;;;;5039436;28;20509;-68
2022/02/12 03:50:35;;;;;;;24.37;9.03;;;;;;;;;;5040505;28;20071;-68
2022/02/12 03:53:02;;;;;;;22.73;9.03;;;;;;;;;;5034118;28;20029;-68
2022/02/12 03:55:27;;;;;;;22.53;8.93;;;;;;;;;;5028211;28;20029;-70
2022/02/12 03:57:52;;;;;;;18.60;7.93;;;;;;;;;;5040812;28;20252;-71
2022/02/12 04:00:18;;;;;;;30.40;9.33;;;;;;;;;;5040536;28;20205;-71
2022/02/12 04:02:44;;;;;;;22.93;7.27;;;;;;;;;;5040342;28;20041;-71
2022/02/12 04:05:10;;;;;;;28.27;8.63;;;;;;;;;;5040423;28;20112;-71
2022/02/12 04:07:38;;;;;;;26.40;9.43;;;;;;;;;;5039990;28;20270;-71
2022/02/12 04:10:03;;;;;;;23.77;8.90;;;;;;;;;;5030078;28;20259;-71
2022/02/12 04:12:29;;;;;;;24.53;8.90;;;;;;;;;;5040652;28;20655;-71
2022/02/12 04:14:55;;;;;;;25.10;9.80;;;;;;;;;;5040031;28;20033;-71
2022/02/12 04:17:21;;;;;;;26.20;9.77;;;;;;;;;;5040357;28;20279;-71
2022/02/12 04:19:46;;;;;;;27.37;9.33;;;;;;;;;;5039837;28;20747;-71
2022/02/12 04:22:11;;;;;;;26.70;10.00;;;;;;;;;;5040185;28;20168;-71
2022/02/12 04:24:37;;;;;;;36.13;10.23;;;;;;;;;;5039638;28;20063;-71
2022/02/12 04:27:02;;;;;;;24.60;10.13;;;;;;;;;;5033364;28;20034;-71
2022/02/12 04:29:27;;;;;;;23.77;9.67;;;;;;;;;;5019836;28;20112;-71
2022/02/12 04:31:53;;;;;;;19.63;8.67;;;;;;;;;;5039174;28;20024;-71
2022/02/12 04:34:19;;;;;;;57.57;10.60;;;;;;;;;;5039656;28;20044;-71
2022/02/12 04:36:44;;;;;;;35.03;9.37;;;;;;;;;;5039801;28;20018;-71
2022/02/12 04:39:10;;;;;;;29.03;10.00;;;;;;;;;;5026640;28;20341;-71
2022/02/12 04:41:35;;;;;;;26.53;10.57;;;;;;;;;;5033832;28;20025;-71
2022/02/12 04:44:00;;;;;;;31.57;10.83;;;;;;;;;;5020160;28;20026;-71
2022/02/12 04:46:26;;;;;;;19.90;10.03;;;;;;;;;;5035046;28;20025;-71
2022/02/12 04:48:51;;;;;;;25.00;9.73;;;;;;;;;;5040030;28;20212;-71
2022/02/12 04:51:16;;;;;;;24.27;9.30;;;;;;;;;;5038686;28;20264;-71
2022/02/12 04:53:42;;;;;;;23.40;8.93;;;;;;;;;;5039810;28;20033;-71
2022/02/12 04:56:07;;;;;;;28.90;10.57;;;;;;;;;;5039539;28;20416;-71
2022/02/12 04:58:32;;;;;;;24.97;9.27;;;;;;;;;;5039784;28;20032;-71
2022/02/12 05:00:58;;;;;;;26.60;8.67;;;;;;;;;;5039479;28;20024;-71
2022/02/12 05:03:23;;;;;;;18.63;9.57;;;;;;;;;;5039308;28;20051;-71
2022/02/12 05:05:48;;;;;;;28.40;10.90;;;;;;;;;;5039224;28;20452;-71
2022/02/12 05:08:13;;;;;;;21.53;9.03;;;;;;;;;;5039617;28;20659;-71
2022/02/12 05:10:39;;;;;;;24.90;9.20;;;;;;;;;;5039321;28;20389;-71
2022/02/12 05:13:05;;;;;;;24.63;9.17;;;;;;;;;;5039854;28;20224;-71
2022/02/12 05:15:33;;;;;;;22.37;9.70;;;;;;;;;;5038202;28;20557;-71
2022/02/12 05:17:58;;;;;;;24.60;9.37;;;;;;;;;;5039317;28;20070;-71
2022/02/12 05:20:24;;;;;;;24.83;8.97;;;;;;;;;;5039242;28;20251;-70
2022/02/12 05:22:49;;;;;;;30.53;10.73;;;;;;;;;;5039383;28;20108;-71
2022/02/12 05:25:14;;;;;;;31.10;10.83;;;;;;;;;;5038799;28;20475;-71
2022/02/12 05:27:40;;;;;;;20.80;9.77;;;;;;;;;;5039351;28;20025;-71
2022/02/12 05:30:05;;;;;;;29.27;9.47;;;;;;;;;;5039038;28;20059;-71
2022/02/12 05:32:31;;;;;;;29.33;9.57;;;;;;;;;;5039350;28;20036;-70
2022/02/12 05:34:58;;;;;;;23.57;9.87;;;;;;;;;;5038559;28;20412;-70
2022/02/12 05:37:26;;;;;;;29.13;10.30;;;;;;;;;;5039414;28;20019;-70
2022/02/12 05:39:51;;;;;;;22.27;9.77;;;;;;;;;;5037905;28;20580;-70
2022/02/12 05:42:17;;;;;;;30.13;11.97;;;;;;;;;;5038877;28;20255;-71
2022/02/12 05:44:42;;;;;;;23.70;10.13;;;;;;;;;;5023649;28;20022;-70
2022/02/12 05:47:07;;;;;;;32.13;11.63;;;;;;;;;;5038459;28;20284;-70
2022/02/12 05:49:33;;;;;;;36.97;11.47;;;;;;;;;;5038698;28;20021;-70
2022/02/12 05:51:58;;;;;;;38.30;11.80;;;;;;;;;;5038779;28;20116;-70
2022/02/12 05:54:23;;;;;;;25.93;10.57;;;;;;;;;;5038400;28;20090;-70
2022/02/12 05:56:49;;;;;;;26.80;12.57;;;;;;;;;;5038504;28;20036;-70
2022/02/12 05:59:14;;;;;;;30.37;11.33;;;;;;;;;;5038734;28;20377;-70
2022/02/12 06:01:42;;;;;;;26.50;11.20;;;;;;;;;;5038452;28;20037;-70
2022/02/12 06:04:08;;;;;;;37.47;12.50;;;;;;;;;;5036994;28;20122;-70
2022/02/12 06:06:33;;;;;;;43.37;12.33;;;;;;;;;;5037988;28;20439;-71
2022/02/12 06:08:59;;;;;;;31.47;11.40;;;;;;;;;;5019859;28;20112;-71
2022/02/12 06:11:24;;;;;;;43.90;12.43;;;;;;;;;;5033766;28;20297;-70
2022/02/12 06:13:52;;;;;;;30.70;11.13;;;;;;;;;;5038571;28;20044;-70
2022/02/12 06:16:21;;;;;;;31.57;11.50;;;;;;;;;;5038259;28;20235;-71
2022/02/12 06:18:47;;;;;;;28.93;11.30;;;;;;;;;;5038433;28;20344;-71
2022/02/12 06:21:12;;;;;;;34.70;11.27;;;;;;;;;;5038425;28;20267;-71
2022/02/12 06:23:37;;;;;;;32.47;11.13;;;;;;;;;;5038516;28;20250;-70
2022/02/12 06:26:03;;;;;;;36.33;11.80;;;;;;;;;;5038492;28;20169;-70
2022/02/12 06:28:29;;;;;;;26.63;11.53;;;;;;;;;;5038348;28;20021;-71
2022/02/12 06:30:54;;;;;;;43.43;11.53;;;;;;;;;;5038567;28;20029;-71
2022/02/12 06:33:20;;;;;;;42.43;11.33;;;;;;;;;;5038398;28;20274;-71
2022/02/12 06:35:45;;;;;;;38.30;11.17;;;;;;;;;;5035596;28;20091;-71
2022/02/12 06:38:10;;;;;;;30.60;11.03;;;;;;;;;;5033695;28;20341;-71
2022/02/12 06:40:36;;;;;;;33.83;10.60;;;;;;;;;;5030206;28;20029;-71
2022/02/12 06:43:03;;;;;;;29.50;10.70;;;;;;;;;;5037784;28;20538;-70
2022/02/12 06:45:28;;;;;;;49.40;11.47;;;;;;;;;;5037640;28;20492;-70
2022/02/12 06:47:55;;;;;;;26.90;10.80;;;;;;;;;;5020128;28;20252;-70
2022/02/12 06:50:20;;;;;;;26.17;10.50;;;;;;;;;;5026090;28;20438;-70
2022/02/12 06:52:45;;;;;;;26.30;9.70;;;;;;;;;;5038175;28;20251;-70
2022/02/12 06:55:11;;;;;;;21.50;9.70;;;;;;;;;;5038092;28;20040;-70
2022/02/12 06:57:36;;;;;;;32.17;11.30;;;;;;;;;;5034462;28;20473;-70
2022/02/12 07:00:02;;;;;;;24.20;10.37;;;;;;;;;;5028199;28;20032;-70
2022/02/12 07:02:28;;;;;;;33.30;11.07;;;;;;;;;;5041247;28;20045;-70
2022/02/12 07:04:54;;;;;;;21.70;9.07;;;;;;;;;;5039378;28;20289;-70
2022/02/12 07:07:19;;;;;;;31.30;10.37;;;;;;;;;;5041579;28;20355;-69
2022/02/12 07:09:44;;;;;;;33.07;10.90;;;;;;;;;;5041743;28;20651;-69
2022/02/12 07:12:10;;;;;;;31.57;9.47;;;;;;;;;;5041635;28;20436;-69
2022/02/12 07:14:35;;;;;;;23.97;10.80;;;;;;;;;;5041687;28;20079;-72
2022/02/12 07:17:00;;;;;;;33.57;10.13;;;;;;;;;;5041643;28;20265;-72
2022/02/12 07:19:25;;;;;;;26.47;10.27;;;;;;;;;;5041513;28;20241;-69
2022/02/12 07:21:51;;;;;;;44.80;10.97;;;;;;;;;;5036412;28;20095;-70
2022/02/12 07:24:16;;;;;;;27.83;10.00;;;;;;;;;;5021784;28;20099;-70
2022/02/12 07:26:41;;;;;;;24.57;9.73;;;;;;;;;;5039011;28;20029;-70
2022/02/12 07:29:06;;;;;;;24.60;10.10;;;;;;;;;;5041559;28;20412;-70
2022/02/12 07:31:33;;;;;;;26.23;9.63;;;;;;;;;;5041210;28;20484;-70
2022/02/12 07:33:58;;;;;;;27.50;9.87;;;;;;;;;;5041105;28;20098;-70
2022/02/12 07:36:23;;;;;;;35.27;10.63;;;;;;;;;;5041025;28;20775;-70
2022/02/12 07:38:49;;;;;;;26.60;9.83;;;;;;;;;;5031277;28;20033;-70
2022/02/12 07:41:16;;;;;;;34.60;10.17;;;;;;;;;;5037261;28;20185;-70
2022/02/12 07:43:42;;;;;;;30.73;9.13;;;;;;;;;;5031205;28;20023;-70
2022/02/12 07:46:07;;;;;;;33.20;10.17;;;;;;;;;;5036751;28;20536;-70
2022/02/12 07:48:32;;;;;;;25.17;8.90;;;;;;;;;;5041255;28;20152;-70
2022/02/12 07:50:58;;;;;;;31.17;10.47;;;;;;;;;;5040672;28;20033;-70
2022/02/12 07:53:23;;;;;;;25.43;9.90;;;;;;;;;;5040878;28;20023;-70
2022/02/12 07:55:48;;;;;;;23.73;8.60;;;;;;;;;;5040200;28;20394;-70
2022/02/12 07:58:14;;;;;;;25.67;9.37;;;;;;;;;;5041050;28;20021;-70
2022/02/12 08:00:39;;;;;;;24.53;8.77;;;;;;;;;;5040261;28;20051;-70
2022/02/12 08:03:04;;;;;;;25.23;8.23;;;;;;;;;;5036735;28;20049;-70
2022/02/12 08:05:30;;;;;;;23.23;8.50;;;;;;;;;;5038468;28;20356;-70
2022/02/12 08:07:55;;;;;;;20.73;9.27;;;;;;;;;;5040689;28;20535;-70
2022/02/12 08:13:04;;;;;;;27.13;7.73;;;;;;;;;;5040421;28;20063;-70
2022/02/12 08:15:29;;;;;;;22.63;7.33;;;;;;;;;;5040213;28;20347;-70
2022/02/12 08:17:55;;;;;;;18.97;7.97;;;;;;;;;;5040575;28;20024;-70
2022/02/12 08:20:20;;;;;;;16.93;7.03;;;;;;;;;;5040286;28;20079;-70
2022/02/12 08:22:46;;;;;;;19.77;6.20;;;;;;;;;;5040543;28;20378;-70
2022/02/12 08:25:12;;;;;;;23.53;6.27;;;;;;;;;;5039988;28;20094;-70
2022/02/12 08:27:37;;;;;;;21.23;6.77;;;;;;;;;;5040412;28;20075;-70
2022/02/12 08:30:03;;;;;;;14.00;5.03;;;;;;;;;;5040003;28;20181;-70
2022/02/12 08:32:28;;;;;;;10.93;3.90;;;;;;;;;;5039986;28;20287;-70
2022/02/12 08:34:54;;;;;;;13.93;5.40;;;;;;;;;;5039919;28;20037;-70
2022/02/12 08:37:19;;;;;;;12.70;3.57;;;;;;;;;;5037683;28;20098;-70
2022/02/12 08:39:45;;;;;;;11.60;3.97;;;;;;;;;;5026521;28;20025;-70
2022/02/12 08:42:10;;;;;;;9.17;3.23;;;;;;;;;;5029077;28;20018;-70
2022/02/12 08:44:37;;;;;;;10.37;3.40;;;;;;;;;;5019819;28;20386;-70
2022/02/12 08:47:03;;;;;;;9.60;4.13;;;;;;;;;;5039832;28;20033;-70
2022/02/12 08:49:28;;;;;;;8.50;3.47;;;;;;;;;;5039707;28;20025;-70
2022/02/12 08:51:54;;;;;;;11.17;3.80;;;;;;;;;;5039608;28;20032;-68
2022/02/12 08:54:19;;;;;;;8.33;3.50;;;;;;;;;;5039733;28;20021;-69
2022/02/12 08:56:44;;;;;;;7.97;2.97;;;;;;;;;;5039356;28;20562;-70
2022/02/12 08:59:10;;;;;;;9.53;2.80;;;;;;;;;;5026051;28;20461;-70
2022/02/12 09:01:37;;;;;;;9.30;3.17;;;;;;;;;;5039305;28;20213;-70
2022/02/12 09:04:03;;;;;;;9.00;3.23;;;;;;;;;;5038040;28;20041;-70
2022/02/12 09:06:29;;;;;;;7.17;2.70;;;;;;;;;;5039232;28;20033;-70
2022/02/12 09:08:56;;;;;;;7.13;2.57;;;;;;;;;;5035557;28;20044;-70
2022/02/12 09:11:22;;;;;;;12.23;3.50;;;;;;;;;;5033874;28;20033;-69
2022/02/12 09:13:53;;;;;;;10.30;3.00;;;;;;;;;;5038347;28;20076;-69
2022/02/12 09:16:19;;;;;;;8.73;3.07;;;;;;;;;;5038777;28;20024;-69
2022/02/12 09:18:44;;;;;;;12.33;3.47;;;;;;;;;;5038922;28;20049;-69
2022/02/12 09:21:09;;;;;;;11.03;3.20;;;;;;;;;;5038165;28;20064;-69
2022/02/12 09:23:35;;;;;;;8.90;3.37;;;;;;;;;;5038945;28;20049;-69
2022/02/12 09:26:00;;;;;;;10.20;4.97;;;;;;;;;;5038618;28;20028;-69
2022/02/12 09:28:26;;;;;;;12.13;3.90;;;;;;;;;;5038643;28;20062;-69
2022/02/12 09:30:51;;;;;;;15.23;4.00;;;;;;;;;;5039025;28;20286;-69
2022/02/12 09:33:16;;;;;;;13.73;3.93;;;;;;;;;;5038733;28;20032;-69
2022/02/12 09:35:41;;;;;;;9.60;3.60;;;;;;;;;;5038554;28;20239;-69
2022/02/12 09:38:07;;;;;;;8.53;3.50;;;;;;;;;;5037665;28;20485;-69
2022/02/12 09:40:32;;;;;;;8.60;3.40;;;;;;;;;;5038574;28;20029;-69
2022/02/12 09:42:59;;;;;;;6.97;3.60;;;;;;;;;;5038725;28;20033;-69
2022/02/12 09:45:25;;;;;;;11.30;4.00;;;;;;;;;;5038372;28;20036;-69
2022/02/12 09:47:50;;;;;;;10.40;3.70;;;;;;;;;;5038717;28;20033;-69
2022/02/12 09:50:17;;;;;;;14.00;4.27;;;;;;;;;;5038188;28;20028;-69
2022/02/12 09:52:45;;;;;;;13.20;3.50;;;;;;;;;;5038412;28;20037;-69
2022/02/12 09:55:11;;;;;;;9.27;3.63;;;;;;;;;;5037361;28;20029;-69
2022/02/12 09:57:37;;;;;;;13.10;3.97;;;;;;;;;;5038409;28;20017;-69
2022/02/12 10:00:04;;;;;;;9.70;3.33;;;;;;;;;;5038154;28;20104;-69
2022/02/12 10:02:29;;;;;;;9.30;3.23;;;;;;;;;;5038008;28;20225;-69
2022/02/12 10:05:13;;;;;;;12.70;4.50;;;;;;;;;;5038438;28;20048;-69
2022/02/12 10:07:39;;;;;;;8.90;3.63;;;;;;;;;;5026501;28;20424;-69
2022/02/12 10:10:14;;;;;;;9.37;3.80;;;;;;;;;;5038082;28;20102;-69
2022/02/12 10:12:40;;;;;;;12.00;3.73;;;;;;;;;;5038509;28;20017;-69
2022/02/12 10:15:10;;;;;;;15.97;4.07;;;;;;;;;;5036553;28;20025;-69
2022/02/12 10:17:35;;;;;;;8.07;2.90;;;;;;;;;;5018295;28;20253;-69
2022/02/12 10:20:00;;;;;;;8.93;3.50;;;;;;;;;;5021714;28;20659;-70
2022/02/12 10:22:26;;;;;;;10.97;3.20;;;;;;;;;;5038003;28;20616;-69
2022/02/12 10:24:51;;;;;;;9.77;3.10;;;;;;;;;;5037765;28;20116;-69
2022/02/12 10:27:21;;;;;;;10.67;3.57;;;;;;;;;;5038137;28;20039;-70
2022/02/12 10:29:47;;;;;;;6.87;3.03;;;;;;;;;;5037838;28;20029;-70
2022/02/12 10:32:14;;;;;;;8.50;3.40;;;;;;;;;;5038539;28;20394;-69
2022/02/12 10:34:42;;;;;;;6.90;3.37;;;;;;;;;;5041514;28;20021;-69
2022/02/12 10:37:08;;;;;;;8.57;3.00;;;;;;;;;;5042319;28;20324;-69
2022/02/12 10:39:37;;;;;;;11.07;4.07;;;;;;;;;;5040758;28;20374;-70
2022/02/12 10:42:03;;;;;;;10.53;3.87;;;;;;;;;;5030957;28;20572;-70
2022/02/12 10:44:29;;;;;;;7.40;2.67;;;;;;;;;;5041953;28;20025;-69
2022/02/12 10:46:54;;;;;;;11.43;4.17;;;;;;;;;;5032908;28;20706;-70
2022/02/12 10:49:22;;;;;;;8.00;3.70;;;;;;;;;;5022155;28;20278;-69
2022/02/12 10:51:51;;;;;;;9.10;3.43;;;;;;;;;;5041624;28;20393;-69
2022/02/12 10:54:19;;;;;;;6.07;2.57;;;;;;;;;;5041783;28;20025;-69
2022/02/12 10:56:47;;;;;;;8.03;2.80;;;;;;;;;;5041595;28;20157;-70
2022/02/12 10:59:13;;;;;;;6.53;2.87;;;;;;;;;;5041729;28;20021;-70
2022/02/12 11:01:39;;;;;;;16.97;3.03;;;;;;;;;;5041472;28;20362;-70
2022/02/12 11:04:05;;;;;;;10.90;3.13;;;;;;;;;;5041243;28;20083;-70
2022/02/12 11:06:30;;;;;;;10.63;3.37;;;;;;;;;;5041476;28;20382;-70
2022/02/12 11:08:56;;;;;;;11.00;3.20;;;;;;;;;;5041352;28;20021;-70
2022/02/12 11:11:22;;;;;;;7.10;2.50;;;;;;;;;;5041570;28;20067;-70
2022/02/12 11:13:47;;;;;;;7.57;2.70;;;;;;;;;;5041185;28;20469;-70
2022/02/12 11:16:12;;;;;;;7.20;2.67;;;;;;;;;;5040939;28;20284;-70
2022/02/12 11:18:39;;;;;;;10.03;2.50;;;;;;;;;;5024457;28;20048;-70
2022/02/12 11:21:05;;;;;;;12.53;2.60;;;;;;;;;;5033566;28;20191;-70
2022/02/12 11:23:31;;;;;;;5.17;2.63;;;;;;;;;;5041089;28;20148;-70
2022/02/12 11:26:03;;;;;;;8.47;2.63;;;;;;;;;;5041201;28;20025;-69
2022/02/12 11:28:29;;;;;;;9.95;3.13;;;;;;;;;;5041256;28;20487;-70
2022/02/12 11:31:17;;;;;;;7.27;2.13;;;;;;;;;;5040869;28;20277;-70
2022/02/12 11:34:01;;;;;;;12.87;3.33;;;;;;;;;;5023201;28;20033;-70
2022/02/12 11:36:26;;;;;;;8.67;2.17;;;;;;;;;;5040950;28;20029;-70
2022/02/12 11:39:03;;;;;;;8.47;3.10;;;;;;;;;;5040856;28;20649;-70
2022/02/12 11:41:28;;;;;;;7.83;3.20;;;;;;;;;;5040934;28;20025;-69
2022/02/12 11:43:54;;;;;;;8.53;3.20;;;;;;;;;;5040211;28;20025;-70
2022/02/12 11:46:39;;;;;;;9.77;2.60;;;;;;;;;;5039367;28;20095;-70
2022/02/12 11:49:22;;;;;;;7.33;2.80;;;;;;;;;;5027039;28;20029;-70
2022/02/12 11:51:47;;;;;;;8.63;2.57;;;;;;;;;;5040749;28;20421;-70
2022/02/12 11:54:33;;;;;;;7.97;2.70;;;;;;;;;;5040435;28;20035;-70
2022/02/12 11:56:58;;;;;;;13.80;2.90;;;;;;;;;;5040484;28;20564;-70
2022/02/12 11:59:23;;;;;;;7.90;2.53;;;;;;;;;;5040782;28;20017;-70
2022/02/12 12:01:51;;;;;;;9.37;3.00;;;;;;;;;;5040493;28;20056;-70
2022/02/12 12:04:25;;;;;;;7.87;2.57;;;;;;;;;;5027970;28;20021;-70
2022/02/12 12:07:02;;;;;;;8.47;2.43;;;;;;;;;;5040233;28;20045;-70
2022/02/12 12:09:31;;;;;;;9.43;2.90;;;;;;;;;;5040455;28;20048;-70
2022/02/12 12:12:16;;;;;;;16.10;3.03;;;;;;;;;;5040128;28;20565;-70
2022/02/12 12:14:42;;;;;;;9.83;2.37;;;;;;;;;;5039756;28;20025;-70
2022/02/12 12:17:07;;;;;;;13.83;3.10;;;;;;;;;;5040393;28;20017;-70
2022/02/12 12:19:37;;;;;;;10.10;2.97;;;;;;;;;;5040460;28;20148;-70
2022/02/12 12:22:03;;;;;;;6.97;2.27;;;;;;;;;;5021676;28;20359;-70
2022/02/12 12:24:29;;;;;;;10.10;2.73;;;;;;;;;;5020294;28;20018;-70
2022/02/12 12:26:55;;;;;;;7.70;2.60;;;;;;;;;;5033598;28;20029;-70
2022/02/12 12:32:10;;;;;;;10.03;2.60;;;;;;;;;;5030378;28;20049;-70
2022/02/12 12:34:36;;;;;;;10.13;2.80;;;;;;;;;;5020029;28;20051;-70
2022/02/12 12:37:05;;;;;;;6.77;2.47;;;;;;;;;;5039902;28;20033;-70
2022/02/12 12:39:32;;;;;;;13.63;3.50;;;;;;;;;;5026764;28;20009;-70
2022/02/12 12:41:57;;;;;;;8.97;2.83;;;;;;;;;;5039704;28;20178;-69
2022/02/12 12:44:27;;;;;;;11.23;2.93;;;;;;;;;;5039828;28;20033;-70
2022/02/12 12:46:53;;;;;;;8.63;1.97;;;;;;;;;;5039652;28;20063;-70
2022/02/12 12:49:29;;;;;;;6.33;2.33;;;;;;;;;;5039659;28;20031;-70
2022/02/12 12:51:55;;;;;;;8.77;1.80;;;;;;;;;;5038800;28;20164;-70
2022/02/12 12:54:46;;;;;;;11.13;2.73;;;;;;;;;;5039477;28;20189;-70
2022/02/12 12:57:13;;;;;;;13.63;2.70;;;;;;;;;;5031397;28;20032;-70
2022/02/12 12:59:49;;;;;;;13.73;2.67;;;;;;;;;;5039330;28;20500;-70
2022/02/12 13:02:14;;;;;;;5.87;2.23;;;;;;;;;;5038653;28;20045;-70
2022/02/12 13:04:46;;;;;;;6.07;1.87;;;;;;;;;;5039018;28;20441;-70
2022/02/12 13:07:11;;;;;;;;;;;;;;;;;;5039837;28;20573;-70
2022/02/12 13:09:37;;;;;;;5.07;1.55;;;;;;;;;;5039370;28;20011;-70
2022/02/12 13:12:21;;;;;;;6.57;2.07;;;;;;;;;;5039496;28;20052;-70
2022/02/12 13:14:46;;;;;;;7.40;1.50;;;;;;;;;;5039005;28;20397;-70
2022/02/12 13:17:11;;;;;;;4.67;1.40;;;;;;;;;;5032667;28;20033;-70
2022/02/12 13:19:37;;;;;;;5.60;1.23;;;;;;;;;;5019276;28;20013;-70
2022/02/12 13:22:02;;;;;;;3.20;1.10;;;;;;;;;;5039163;28;20021;-70
2022/02/12 13:24:34;;;;;;;8.07;1.40;;;;;;;;;;5039046;28;20386;-70
2022/02/12 13:26:59;;;;;;;5.53;1.83;;;;;;;;;;5038663;28;20032;-70
2022/02/12 13:29:25;;;;;;;7.87;1.80;;;;;;;;;;5038906;28;20032;-70
2022/02/12 13:31:57;;;;;;;7.07;1.83;;;;;;;;;;5038629;28;20546;-70
2022/02/12 13:34:26;;;;;;;8.20;1.50;;;;;;;;;;5038915;28;20097;-70
2022/02/12 13:36:52;;;;;;;15.10;1.70;;;;;;;;;;5038472;28;20025;-71
2022/02/12 13:39:18;;;;;;;6.70;1.60;;;;;;;;;;5024835;28;20028;-71
2022/02/12 13:41:43;;;;;;;6.07;1.40;;;;;;;;;;5038708;28;20059;-71
2022/02/12 13:44:09;;;;;;;7.97;1.73;;;;;;;;;;5038749;28;20025;-71
2022/02/12 13:46:38;;;;;;;8.20;1.70;;;;;;;;;;5037577;28;20570;-71
2022/02/12 13:49:16;;;;;;;7.40;1.50;;;;;;;;;;5024075;28;20163;-71
2022/02/12 13:51:52;;;;;;;5.40;1.30;;;;;;;;;;5037409;28;20435;-71
2022/02/12 13:54:17;;;;;;;5.53;1.80;;;;;;;;;;5038523;28;20063;-71
2022/02/12 13:56:44;;;;;;;4.73;1.80;;;;;;;;;;5038248;28;20032;-71
2022/02/12 13:59:09;;;;;;;11.57;1.80;;;;;;;;;;5038659;28;20020;-71
2022/02/12 14:01:35;;;;;;;12.00;2.13;;;;;;;;;;5038326;28;20075;-71
2022/02/12 14:04:00;;;;;;;5.70;1.70;;;;;;;;;;5038078;28;20068;-71
2022/02/12 14:06:25;;;;;;;5.37;1.83;;;;;;;;;;5037976;28;20063;-71
2022/02/12 14:08:52;;;;;;;6.90;2.17;;;;;;;;;;5038320;28;20558;-70
2022/02/12 14:11:19;;;;;;;7.73;1.80;;;;;;;;;;5038261;28;20059;-70
2022/02/12 14:13:44;;;;;;;5.13;1.67;;;;;;;;;;5038286;28;20711;-70
2022/02/12 14:16:10;;;;;;;8.47;2.17;;;;;;;;;;5037982;28;20279;-70
2022/02/12 14:18:35;;;;;;;7.33;2.00;;;;;;;;;;5038641;28;20021;-70
2022/02/12 14:21:01;;;;;;;6.53;2.67;;;;;;;;;;5037573;28;20029;-70
2022/02/12 14:23:27;;;;;;;7.37;2.27;;;;;;;;;;5038214;28;20446;-70
2022/02/12 14:25:52;;;;;;;5.87;1.80;;;;;;;;;;5037735;28;20064;-70
2022/02/12 14:28:17;;;;;;;5.83;1.70;;;;;;;;;;5020862;28;20137;-70
2022/02/12 14:30:43;;;;;;;5.60;1.80;;;;;;;;;;5027635;28;20438;-71
2022/02/12 14:33:09;;;;;;;11.13;2.43;;;;;;;;;;5038077;28;20327;-71
2022/02/12 14:35:34;;;;;;;9.13;2.00;;;;;;;;;;5037810;28;20032;-70
2022/02/12 14:38:00;;;;;;;13.70;2.40;;;;;;;;;;5035277;28;20421;-70